sensor_id;sensor_type;location;lat;lon;timestamp;temperature;humidity
78788;DHT22;68131;52.508;5.502;2023-06-14T00:01:49;19.90;53.80
78788;DHT22;68131;52.508;5.502;2023-06-14T00:04:18;19.80;53.80
78788;DHT22;68131;52.508;5.502;2023-06-14T00:06:48;19.80;53.70
78788;DHT22;68131;52.508;5.502;2023-06-14T00:09:19;19.80;53.70
78788;DHT22;68131;52.508;5.502;2023-06-14T00:11:49;19.80;53.50
78788;DHT22;68131;52.508;5.502;2023-06-14T00:14:18;19.80;53.60
78788;DHT22;68131;52.508;5.502;2023-06-14T00:16:47;19.80;53.70
78788;DHT22;68131;52.508;5.502;2023-06-14T00:19:19;19.70;53.70
78788;DHT22;68131;52.508;5.502;2023-06-14T00:21:48;19.70;53.70
78788;DHT22;68131;52.508;5.502;2023-06-14T00:24:20;19.70;53.60
78788;DHT22;68131;52.508;5.502;2023-06-14T00:26:49;19.60;53.70
78788;DHT22;68131;52.508;5.502;2023-06-14T00:29:18;19.50;53.80
78788;DHT22;68131;52.508;5.502;2023-06-14T00:31:47;19.50;53.80
78788;DHT22;68131;52.508;5.502;2023-06-14T00:34:18;19.40;53.90
78788;DHT22;68131;52.508;5.502;2023-06-14T00:36:49;19.40;53.90
78788;DHT22;68131;52.508;5.502;2023-06-14T00:39:23;19.40;54.00
78788;DHT22;68131;52.508;5.502;2023-06-14T00:41:52;19.30;54.10
78788;DHT22;68131;52.508;5.502;2023-06-14T00:44:21;19.30;54.10
78788;DHT22;68131;52.508;5.502;2023-06-14T00:46:50;19.20;54.20
78788;DHT22;68131;52.508;5.502;2023-06-14T00:49:23;19.10;54.30
78788;DHT22;68131;52.508;5.502;2023-06-14T00:51:53;19.10;54.30
78788;DHT22;68131;52.508;5.502;2023-06-14T00:54:24;19.00;54.30
78788;DHT22;68131;52.508;5.502;2023-06-14T00:56:53;19.00;54.40
78788;DHT22;68131;52.508;5.502;2023-06-14T00:59:22;18.90;54.40
78788;DHT22;68131;52.508;5.502;2023-06-14T01:01:52;18.90;54.50
78788;DHT22;68131;52.508;5.502;2023-06-14T01:04:22;18.80;54.50
78788;DHT22;68131;52.508;5.502;2023-06-14T01:06:59;18.80;54.60
78788;DHT22;68131;52.508;5.502;2023-06-14T01:09:47;18.70;54.50
78788;DHT22;68131;52.508;5.502;2023-06-14T01:12:23;18.70;54.60
78788;DHT22;68131;52.508;5.502;2023-06-14T01:14:57;18.70;54.60
78788;DHT22;68131;52.508;5.502;2023-06-14T01:17:29;18.60;54.60
78788;DHT22;68131;52.508;5.502;2023-06-14T01:20:07;18.50;54.70
78788;DHT22;68131;52.508;5.502;2023-06-14T01:22:51;18.50;54.70
78788;DHT22;68131;52.508;5.502;2023-06-14T01:25:22;18.40;54.80
78788;DHT22;68131;52.508;5.502;2023-06-14T01:27:53;18.40;54.80
78788;DHT22;68131;52.508;5.502;2023-06-14T01:30:26;18.30;54.90
78788;DHT22;68131;52.508;5.502;2023-06-14T01:32:56;18.20;54.90
78788;DHT22;68131;52.508;5.502;2023-06-14T01:35:30;18.20;54.80
78788;DHT22;68131;52.508;5.502;2023-06-14T01:38:08;18.20;54.90
78788;DHT22;68131;52.508;5.502;2023-06-14T01:40:38;18.10;54.80
78788;DHT22;68131;52.508;5.502;2023-06-14T01:43:08;18.10;54.80
78788;DHT22;68131;52.508;5.502;2023-06-14T01:45:40;18.10;54.90
78788;DHT22;68131;52.508;5.502;2023-06-14T01:48:10;18.10;54.90
78788;DHT22;68131;52.508;5.502;2023-06-14T01:50:40;18.10;54.90
78788;DHT22;68131;52.508;5.502;2023-06-14T01:53:12;18.10;54.90
78788;DHT22;68131;52.508;5.502;2023-06-14T01:55:41;18.10;54.90
78788;DHT22;68131;52.508;5.502;2023-06-14T01:58:14;18.10;54.90
78788;DHT22;68131;52.508;5.502;2023-06-14T02:00:45;18.10;55.00
78788;DHT22;68131;52.508;5.502;2023-06-14T02:03:14;18.00;55.20
78788;DHT22;68131;52.508;5.502;2023-06-14T02:05:46;17.90;55.30
78788;DHT22;68131;52.508;5.502;2023-06-14T02:08:17;17.90;55.50
78788;DHT22;68131;52.508;5.502;2023-06-14T02:10:46;17.90;55.80
78788;DHT22;68131;52.508;5.502;2023-06-14T02:13:16;17.80;55.80
78788;DHT22;68131;52.508;5.502;2023-06-14T02:15:45;17.70;56.00
78788;DHT22;68131;52.508;5.502;2023-06-14T02:18:17;17.70;56.10
78788;DHT22;68131;52.508;5.502;2023-06-14T02:20:46;17.70;56.30
78788;DHT22;68131;52.508;5.502;2023-06-14T02:23:18;17.70;56.40
78788;DHT22;68131;52.508;5.502;2023-06-14T02:25:47;17.70;56.40
78788;DHT22;68131;52.508;5.502;2023-06-14T02:28:19;17.60;56.50
78788;DHT22;68131;52.508;5.502;2023-06-14T02:30:48;17.60;56.70
78788;DHT22;68131;52.508;5.502;2023-06-14T02:33:17;17.60;56.80
78788;DHT22;68131;52.508;5.502;2023-06-14T02:35:49;17.50;56.90
78788;DHT22;68131;52.508;5.502;2023-06-14T02:38:21;17.50;57.10
78788;DHT22;68131;52.508;5.502;2023-06-14T02:40:50;17.50;57.20
78788;DHT22;68131;52.508;5.502;2023-06-14T02:43:22;17.40;57.20
78788;DHT22;68131;52.508;5.502;2023-06-14T02:45:54;17.40;57.30
78788;DHT22;68131;52.508;5.502;2023-06-14T02:48:23;17.40;57.40
78788;DHT22;68131;52.508;5.502;2023-06-14T02:50:52;17.40;57.50
78788;DHT22;68131;52.508;5.502;2023-06-14T02:53:25;17.40;57.70
78788;DHT22;68131;52.508;5.502;2023-06-14T02:55:54;17.30;57.80
78788;DHT22;68131;52.508;5.502;2023-06-14T02:58:24;17.30;57.70
78788;DHT22;68131;52.508;5.502;2023-06-14T03:00:54;17.30;57.70
78788;DHT22;68131;52.508;5.502;2023-06-14T03:03:23;17.30;57.80
78788;DHT22;68131;52.508;5.502;2023-06-14T03:05:55;17.30;57.80
78788;DHT22;68131;52.508;5.502;2023-06-14T03:08:32;17.30;58.00
78788;DHT22;68131;52.508;5.502;2023-06-14T03:11:09;17.20;58.10
78788;DHT22;68131;52.508;5.502;2023-06-14T03:13:39;17.10;58.30
78788;DHT22;68131;52.508;5.502;2023-06-14T03:16:10;17.10;58.40
78788;DHT22;68131;52.508;5.502;2023-06-14T03:18:41;17.10;58.50
78788;DHT22;68131;52.508;5.502;2023-06-14T03:21:10;17.00;58.60
78788;DHT22;68131;52.508;5.502;2023-06-14T03:23:45;17.00;58.60
78788;DHT22;68131;52.508;5.502;2023-06-14T03:26:14;16.90;58.70
78788;DHT22;68131;52.508;5.502;2023-06-14T03:28:44;16.90;58.60
78788;DHT22;68131;52.508;5.502;2023-06-14T03:31:14;16.90;58.70
78788;DHT22;68131;52.508;5.502;2023-06-14T03:33:49;16.90;58.70
78788;DHT22;68131;52.508;5.502;2023-06-14T03:36:20;16.80;58.90
78788;DHT22;68131;52.508;5.502;2023-06-14T03:38:51;16.80;58.90
78788;DHT22;68131;52.508;5.502;2023-06-14T03:41:21;16.80;58.90
78788;DHT22;68131;52.508;5.502;2023-06-14T03:43:51;16.80;59.00
78788;DHT22;68131;52.508;5.502;2023-06-14T03:46:21;16.80;59.00
78788;DHT22;68131;52.508;5.502;2023-06-14T03:48:50;16.80;59.00
78788;DHT22;68131;52.508;5.502;2023-06-14T03:51:20;16.80;59.10
78788;DHT22;68131;52.508;5.502;2023-06-14T03:53:54;16.70;59.20
78788;DHT22;68131;52.508;5.502;2023-06-14T03:56:24;16.70;59.30
78788;DHT22;68131;52.508;5.502;2023-06-14T03:58:53;16.70;59.30
78788;DHT22;68131;52.508;5.502;2023-06-14T04:01:24;16.70;59.30
78788;DHT22;68131;52.508;5.502;2023-06-14T04:03:58;16.70;59.40
78788;DHT22;68131;52.508;5.502;2023-06-14T04:06:27;16.70;59.40
78788;DHT22;68131;52.508;5.502;2023-06-14T04:09:02;16.70;59.50
78788;DHT22;68131;52.508;5.502;2023-06-14T04:11:34;16.70;59.50
78788;DHT22;68131;52.508;5.502;2023-06-14T04:14:03;16.70;59.60
78788;DHT22;68131;52.508;5.502;2023-06-14T04:16:32;16.70;59.70
78788;DHT22;68131;52.508;5.502;2023-06-14T04:19:02;16.70;59.70
78788;DHT22;68131;52.508;5.502;2023-06-14T04:21:31;16.70;59.70
78788;DHT22;68131;52.508;5.502;2023-06-14T04:24:06;16.80;59.80
78788;DHT22;68131;52.508;5.502;2023-06-14T04:26:51;16.70;59.70
78788;DHT22;68131;52.508;5.502;2023-06-14T04:29:21;16.70;59.90
78788;DHT22;68131;52.508;5.502;2023-06-14T04:32:02;16.80;59.90
78788;DHT22;68131;52.508;5.502;2023-06-14T04:34:32;17.00;59.60
78788;DHT22;68131;52.508;5.502;2023-06-14T04:37:04;17.20;59.30
78788;DHT22;68131;52.508;5.502;2023-06-14T04:39:42;17.50;58.90
78788;DHT22;68131;52.508;5.502;2023-06-14T04:42:12;17.70;58.50
78788;DHT22;68131;52.508;5.502;2023-06-14T04:44:46;17.80;58.30
78788;DHT22;68131;52.508;5.502;2023-06-14T04:47:16;18.00;58.00
78788;DHT22;68131;52.508;5.502;2023-06-14T04:49:47;18.10;57.80
78788;DHT22;68131;52.508;5.502;2023-06-14T04:52:17;18.10;57.70
78788;DHT22;68131;52.508;5.502;2023-06-14T04:54:49;18.30;57.50
78788;DHT22;68131;52.508;5.502;2023-06-14T04:57:19;18.40;57.40
78788;DHT22;68131;52.508;5.502;2023-06-14T04:59:50;18.50;57.40
78788;DHT22;68131;52.508;5.502;2023-06-14T05:02:25;18.60;57.10
78788;DHT22;68131;52.508;5.502;2023-06-14T05:04:56;18.80;56.70
78788;DHT22;68131;52.508;5.502;2023-06-14T05:07:27;19.10;56.50
78788;DHT22;68131;52.508;5.502;2023-06-14T05:10:00;19.20;56.10
78788;DHT22;68131;52.508;5.502;2023-06-14T05:12:30;19.30;56.10
78788;DHT22;68131;52.508;5.502;2023-06-14T05:15:00;19.40;55.90
78788;DHT22;68131;52.508;5.502;2023-06-14T05:17:29;19.50;55.80
78788;DHT22;68131;52.508;5.502;2023-06-14T05:19:58;19.60;55.60
78788;DHT22;68131;52.508;5.502;2023-06-14T05:22:27;19.80;55.50
78788;DHT22;68131;52.508;5.502;2023-06-14T05:24:56;19.80;55.30
78788;DHT22;68131;52.508;5.502;2023-06-14T05:27:28;19.80;55.30
78788;DHT22;68131;52.508;5.502;2023-06-14T05:29:57;19.90;55.30
78788;DHT22;68131;52.508;5.502;2023-06-14T05:32:26;19.90;55.30
78788;DHT22;68131;52.508;5.502;2023-06-14T05:34:57;19.90;55.30
78788;DHT22;68131;52.508;5.502;2023-06-14T05:37:29;20.10;55.30
78788;DHT22;68131;52.508;5.502;2023-06-14T05:39:58;20.30;55.10
78788;DHT22;68131;52.508;5.502;2023-06-14T05:42:31;20.50;54.40
78788;DHT22;68131;52.508;5.502;2023-06-14T05:45:00;20.50;54.20
78788;DHT22;68131;52.508;5.502;2023-06-14T05:47:30;20.40;54.30
78788;DHT22;68131;52.508;5.502;2023-06-14T05:50:00;20.40;54.30
78788;DHT22;68131;52.508;5.502;2023-06-14T05:52:29;20.50;54.30
78788;DHT22;68131;52.508;5.502;2023-06-14T05:54:58;20.70;54.10
78788;DHT22;68131;52.508;5.502;2023-06-14T05:57:27;20.70;53.80
78788;DHT22;68131;52.508;5.502;2023-06-14T05:59:59;20.80;53.90
78788;DHT22;68131;52.508;5.502;2023-06-14T06:02:38;20.90;53.70
78788;DHT22;68131;52.508;5.502;2023-06-14T06:05:11;21.00;53.70
78788;DHT22;68131;52.508;5.502;2023-06-14T06:07:41;21.00;53.50
78788;DHT22;68131;52.508;5.502;2023-06-14T06:10:11;21.00;53.60
78788;DHT22;68131;52.508;5.502;2023-06-14T06:12:41;21.20;53.50
78788;DHT22;68131;52.508;5.502;2023-06-14T06:15:13;21.30;53.30
78788;DHT22;68131;52.508;5.502;2023-06-14T06:17:42;21.40;53.20
78788;DHT22;68131;52.508;5.502;2023-06-14T06:20:12;21.60;52.90
78788;DHT22;68131;52.508;5.502;2023-06-14T06:22:42;21.70;53.20
78788;DHT22;68131;52.508;5.502;2023-06-14T06:25:11;22.00;52.70
78788;DHT22;68131;52.508;5.502;2023-06-14T06:27:40;22.10;52.20
78788;DHT22;68131;52.508;5.502;2023-06-14T06:30:13;22.00;52.40
78788;DHT22;68131;52.508;5.502;2023-06-14T06:32:42;22.10;52.40
78788;DHT22;68131;52.508;5.502;2023-06-14T06:35:12;22.20;52.20
78788;DHT22;68131;52.508;5.502;2023-06-14T06:37:41;22.30;52.10
78788;DHT22;68131;52.508;5.502;2023-06-14T06:40:11;22.40;52.20
78788;DHT22;68131;52.508;5.502;2023-06-14T06:42:40;22.50;52.00
78788;DHT22;68131;52.508;5.502;2023-06-14T06:45:15;22.60;51.90
78788;DHT22;68131;52.508;5.502;2023-06-14T06:47:44;22.60;51.70
78788;DHT22;68131;52.508;5.502;2023-06-14T06:50:13;22.50;52.00
78788;DHT22;68131;52.508;5.502;2023-06-14T06:52:42;22.50;51.90
78788;DHT22;68131;52.508;5.502;2023-06-14T06:55:11;22.50;52.00
78788;DHT22;68131;52.508;5.502;2023-06-14T06:57:40;22.60;51.90
78788;DHT22;68131;52.508;5.502;2023-06-14T07:00:11;22.80;51.50
78788;DHT22;68131;52.508;5.502;2023-06-14T07:02:42;22.80;51.50
78788;DHT22;68131;52.508;5.502;2023-06-14T07:05:14;23.00;51.20
78788;DHT22;68131;52.508;5.502;2023-06-14T07:07:43;23.20;51.10
78788;DHT22;68131;52.508;5.502;2023-06-14T07:10:13;23.30;50.40
78788;DHT22;68131;52.508;5.502;2023-06-14T07:12:42;23.30;50.30
78788;DHT22;68131;52.508;5.502;2023-06-14T07:15:13;23.40;50.10
78788;DHT22;68131;52.508;5.502;2023-06-14T07:17:46;23.50;50.10
78788;DHT22;68131;52.508;5.502;2023-06-14T07:20:17;23.50;50.20
78788;DHT22;68131;52.508;5.502;2023-06-14T07:22:48;23.60;49.80
78788;DHT22;68131;52.508;5.502;2023-06-14T07:25:17;23.60;49.60
78788;DHT22;68131;52.508;5.502;2023-06-14T07:27:48;23.70;49.80
78788;DHT22;68131;52.508;5.502;2023-06-14T07:30:17;23.70;49.90
78788;DHT22;68131;52.508;5.502;2023-06-14T07:32:49;23.90;49.60
78788;DHT22;68131;52.508;5.502;2023-06-14T07:35:18;24.00;49.00
78788;DHT22;68131;52.508;5.502;2023-06-14T07:37:48;24.10;49.00
78788;DHT22;68131;52.508;5.502;2023-06-14T07:40:17;24.20;49.30
78788;DHT22;68131;52.508;5.502;2023-06-14T07:42:46;24.30;48.80
78788;DHT22;68131;52.508;5.502;2023-06-14T07:45:17;24.40;48.50
78788;DHT22;68131;52.508;5.502;2023-06-14T07:47:53;24.60;48.60
78788;DHT22;68131;52.508;5.502;2023-06-14T07:50:26;24.80;48.10
78788;DHT22;68131;52.508;5.502;2023-06-14T07:52:56;25.00;47.30
78788;DHT22;68131;52.508;5.502;2023-06-14T07:55:25;25.10;47.30
78788;DHT22;68131;52.508;5.502;2023-06-14T07:57:54;25.10;47.30
78788;DHT22;68131;52.508;5.502;2023-06-14T08:00:23;25.20;47.30
78788;DHT22;68131;52.508;5.502;2023-06-14T08:02:55;25.40;46.60
78788;DHT22;68131;52.508;5.502;2023-06-14T08:05:25;25.40;46.60
78788;DHT22;68131;52.508;5.502;2023-06-14T08:07:55;25.40;46.50
78788;DHT22;68131;52.508;5.502;2023-06-14T08:10:24;25.40;46.30
78788;DHT22;68131;52.508;5.502;2023-06-14T08:12:53;25.20;46.80
78788;DHT22;68131;52.508;5.502;2023-06-14T08:15:22;25.20;46.90
78788;DHT22;68131;52.508;5.502;2023-06-14T08:17:51;25.20;46.80
78788;DHT22;68131;52.508;5.502;2023-06-14T08:20:23;25.20;46.20
78788;DHT22;68131;52.508;5.502;2023-06-14T08:22:53;25.30;46.50
78788;DHT22;68131;52.508;5.502;2023-06-14T08:25:23;25.30;46.30
78788;DHT22;68131;52.508;5.502;2023-06-14T08:27:52;25.40;46.40
78788;DHT22;68131;52.508;5.502;2023-06-14T08:30:22;25.30;45.90
78788;DHT22;68131;52.508;5.502;2023-06-14T08:32:54;25.30;45.70
78788;DHT22;68131;52.508;5.502;2023-06-14T08:35:26;25.30;45.60
78788;DHT22;68131;52.508;5.502;2023-06-14T08:37:55;25.40;45.90
78788;DHT22;68131;52.508;5.502;2023-06-14T08:40:24;25.50;45.90
78788;DHT22;68131;52.508;5.502;2023-06-14T08:42:56;25.50;46.20
78788;DHT22;68131;52.508;5.502;2023-06-14T08:45:25;25.60;45.80
78788;DHT22;68131;52.508;5.502;2023-06-14T08:47:54;25.80;45.70
78788;DHT22;68131;52.508;5.502;2023-06-14T08:50:29;25.90;45.40
78788;DHT22;68131;52.508;5.502;2023-06-14T08:53:01;25.90;45.20
78788;DHT22;68131;52.508;5.502;2023-06-14T08:55:31;25.90;44.80
78788;DHT22;68131;52.508;5.502;2023-06-14T08:58:06;25.70;44.60
78788;DHT22;68131;52.508;5.502;2023-06-14T09:00:35;25.90;44.60
78788;DHT22;68131;52.508;5.502;2023-06-14T09:03:07;25.90;44.60
78788;DHT22;68131;52.508;5.502;2023-06-14T09:05:41;25.90;44.60
78788;DHT22;68131;52.508;5.502;2023-06-14T09:08:12;25.90;45.00
78788;DHT22;68131;52.508;5.502;2023-06-14T09:10:45;26.00;45.30
78788;DHT22;68131;52.508;5.502;2023-06-14T09:13:14;26.10;45.10
78788;DHT22;68131;52.508;5.502;2023-06-14T09:15:43;26.20;45.40
78788;DHT22;68131;52.508;5.502;2023-06-14T09:18:29;26.20;45.30
78788;DHT22;68131;52.508;5.502;2023-06-14T09:21:05;26.30;45.00
78788;DHT22;68131;52.508;5.502;2023-06-14T09:23:36;26.30;44.80
78788;DHT22;68131;52.508;5.502;2023-06-14T09:26:10;26.20;44.70
78788;DHT22;68131;52.508;5.502;2023-06-14T09:28:41;26.10;44.50
78788;DHT22;68131;52.508;5.502;2023-06-14T09:31:12;26.00;44.40
78788;DHT22;68131;52.508;5.502;2023-06-14T09:33:42;25.80;44.70
78788;DHT22;68131;52.508;5.502;2023-06-14T09:36:20;25.80;45.00
78788;DHT22;68131;52.508;5.502;2023-06-14T09:38:53;25.80;45.40
78788;DHT22;68131;52.508;5.502;2023-06-14T09:41:30;25.80;45.50
78788;DHT22;68131;52.508;5.502;2023-06-14T09:44:01;25.90;45.30
78788;DHT22;68131;52.508;5.502;2023-06-14T09:46:32;26.10;45.40
78788;DHT22;68131;52.508;5.502;2023-06-14T09:49:02;26.20;45.50
78788;DHT22;68131;52.508;5.502;2023-06-14T09:51:41;26.40;45.40
78788;DHT22;68131;52.508;5.502;2023-06-14T09:54:15;26.50;45.00
78788;DHT22;68131;52.508;5.502;2023-06-14T09:56:47;26.40;44.70
78788;DHT22;68131;52.508;5.502;2023-06-14T10:01:58;26.20;44.70
78788;DHT22;68131;52.508;5.502;2023-06-14T10:04:30;26.30;44.50
78788;DHT22;68131;52.508;5.502;2023-06-14T10:07:03;26.30;44.60
78788;DHT22;68131;52.508;5.502;2023-06-14T10:09:36;26.30;44.70
78788;DHT22;68131;52.508;5.502;2023-06-14T10:12:08;26.30;44.10
78788;DHT22;68131;52.508;5.502;2023-06-14T10:14:37;26.20;44.30
78788;DHT22;68131;52.508;5.502;2023-06-14T10:17:08;26.20;44.00
78788;DHT22;68131;52.508;5.502;2023-06-14T10:19:44;26.10;44.10
78788;DHT22;68131;52.508;5.502;2023-06-14T10:22:26;26.10;44.40
78788;DHT22;68131;52.508;5.502;2023-06-14T10:24:57;26.10;44.50
78788;DHT22;68131;52.508;5.502;2023-06-14T10:27:30;26.20;44.30
78788;DHT22;68131;52.508;5.502;2023-06-14T10:30:04;26.20;44.50
78788;DHT22;68131;52.508;5.502;2023-06-14T10:32:33;26.20;43.70
78788;DHT22;68131;52.508;5.502;2023-06-14T10:35:05;26.20;43.50
78788;DHT22;68131;52.508;5.502;2023-06-14T10:37:37;26.10;43.30
78788;DHT22;68131;52.508;5.502;2023-06-14T10:40:08;26.00;43.30
78788;DHT22;68131;52.508;5.502;2023-06-14T10:42:37;26.00;43.10
78788;DHT22;68131;52.508;5.502;2023-06-14T10:45:13;25.90;43.20
78788;DHT22;68131;52.508;5.502;2023-06-14T10:47:42;25.80;43.00
78788;DHT22;68131;52.508;5.502;2023-06-14T10:50:16;25.70;43.40
78788;DHT22;68131;52.508;5.502;2023-06-14T10:52:51;25.70;43.90
78788;DHT22;68131;52.508;5.502;2023-06-14T10:55:22;25.80;43.90
78788;DHT22;68131;52.508;5.502;2023-06-14T10:57:55;25.90;43.90
78788;DHT22;68131;52.508;5.502;2023-06-14T11:00:28;26.00;44.00
78788;DHT22;68131;52.508;5.502;2023-06-14T11:05:57;26.00;44.20
78788;DHT22;68131;52.508;5.502;2023-06-14T11:11:32;25.80;43.50
78788;DHT22;68131;52.508;5.502;2023-06-14T11:14:01;25.60;44.10
78788;DHT22;68131;52.508;5.502;2023-06-14T11:16:31;25.70;44.10
78788;DHT22;68131;52.508;5.502;2023-06-14T11:19:03;25.80;43.70
78788;DHT22;68131;52.508;5.502;2023-06-14T11:21:39;25.90;44.00
78788;DHT22;68131;52.508;5.502;2023-06-14T11:24:13;25.90;43.70
78788;DHT22;68131;52.508;5.502;2023-06-14T11:26:47;25.90;43.80
78788;DHT22;68131;52.508;5.502;2023-06-14T11:29:16;25.90;43.80
78788;DHT22;68131;52.508;5.502;2023-06-14T11:31:48;25.80;43.90
78788;DHT22;68131;52.508;5.502;2023-06-14T11:34:20;25.70;44.20
78788;DHT22;68131;52.508;5.502;2023-06-14T11:36:49;25.80;44.00
78788;DHT22;68131;52.508;5.502;2023-06-14T11:39:24;25.90;44.10
78788;DHT22;68131;52.508;5.502;2023-06-14T11:41:56;25.90;44.20
78788;DHT22;68131;52.508;5.502;2023-06-14T11:44:27;25.90;44.00
78788;DHT22;68131;52.508;5.502;2023-06-14T11:46:56;25.80;44.20
78788;DHT22;68131;52.508;5.502;2023-06-14T11:49:25;25.80;44.20
78788;DHT22;68131;52.508;5.502;2023-06-14T11:51:55;25.70;44.00
78788;DHT22;68131;52.508;5.502;2023-06-14T11:54:24;25.70;44.20
78788;DHT22;68131;52.508;5.502;2023-06-14T11:56:56;25.70;44.00
78788;DHT22;68131;52.508;5.502;2023-06-14T11:59:25;25.70;44.20
78788;DHT22;68131;52.508;5.502;2023-06-14T12:01:54;25.70;44.10
78788;DHT22;68131;52.508;5.502;2023-06-14T12:04:26;25.80;43.40
78788;DHT22;68131;52.508;5.502;2023-06-14T12:06:56;25.80;43.40
78788;DHT22;68131;52.508;5.502;2023-06-14T12:09:25;25.90;43.30
78788;DHT22;68131;52.508;5.502;2023-06-14T12:12:03;25.90;43.60
78788;DHT22;68131;52.508;5.502;2023-06-14T12:14:32;25.90;43.10
78788;DHT22;68131;52.508;5.502;2023-06-14T12:17:07;25.90;42.70
78788;DHT22;68131;52.508;5.502;2023-06-14T12:19:42;25.80;42.90
78788;DHT22;68131;52.508;5.502;2023-06-14T12:22:12;25.70;42.80
78788;DHT22;68131;52.508;5.502;2023-06-14T12:24:43;25.70;42.50
78788;DHT22;68131;52.508;5.502;2023-06-14T12:27:15;25.60;43.00
78788;DHT22;68131;52.508;5.502;2023-06-14T12:29:46;25.60;43.30
78788;DHT22;68131;52.508;5.502;2023-06-14T12:32:15;25.60;43.00
78788;DHT22;68131;52.508;5.502;2023-06-14T12:34:44;25.60;43.20
78788;DHT22;68131;52.508;5.502;2023-06-14T12:37:13;25.60;43.80
78788;DHT22;68131;52.508;5.502;2023-06-14T12:39:43;25.70;43.90
78788;DHT22;68131;52.508;5.502;2023-06-14T12:42:15;25.70;43.90
78788;DHT22;68131;52.508;5.502;2023-06-14T12:44:44;25.80;43.70
78788;DHT22;68131;52.508;5.502;2023-06-14T12:47:13;25.90;43.40
78788;DHT22;68131;52.508;5.502;2023-06-14T12:49:42;25.90;42.50
78788;DHT22;68131;52.508;5.502;2023-06-14T12:52:11;25.90;42.20
78788;DHT22;68131;52.508;5.502;2023-06-14T12:54:41;25.90;42.50
78788;DHT22;68131;52.508;5.502;2023-06-14T12:57:10;25.90;42.20
78788;DHT22;68131;52.508;5.502;2023-06-14T12:59:42;25.90;42.10
78788;DHT22;68131;52.508;5.502;2023-06-14T13:02:13;25.90;42.60
78788;DHT22;68131;52.508;5.502;2023-06-14T13:04:42;26.00;42.60
78788;DHT22;68131;52.508;5.502;2023-06-14T13:07:11;26.00;42.50
78788;DHT22;68131;52.508;5.502;2023-06-14T13:09:41;26.00;42.60
78788;DHT22;68131;52.508;5.502;2023-06-14T13:12:10;26.00;42.70
78788;DHT22;68131;52.508;5.502;2023-06-14T13:14:44;26.00;42.90
78788;DHT22;68131;52.508;5.502;2023-06-14T13:17:13;26.00;42.30
78788;DHT22;68131;52.508;5.502;2023-06-14T13:19:43;25.90;42.20
78788;DHT22;68131;52.508;5.502;2023-06-14T13:22:12;25.90;42.40
78788;DHT22;68131;52.508;5.502;2023-06-14T13:24:41;25.90;42.20
78788;DHT22;68131;52.508;5.502;2023-06-14T13:27:10;25.80;42.90
78788;DHT22;68131;52.508;5.502;2023-06-14T13:29:40;25.90;42.80
78788;DHT22;68131;52.508;5.502;2023-06-14T13:32:12;25.90;43.10
78788;DHT22;68131;52.508;5.502;2023-06-14T13:34:41;25.90;43.20
78788;DHT22;68131;52.508;5.502;2023-06-14T13:37:10;26.00;43.00
78788;DHT22;68131;52.508;5.502;2023-06-14T13:39:39;25.90;42.40
78788;DHT22;68131;52.508;5.502;2023-06-14T13:42:09;25.90;42.30
78788;DHT22;68131;52.508;5.502;2023-06-14T13:44:39;25.80;42.50
78788;DHT22;68131;52.508;5.502;2023-06-14T13:47:08;25.80;42.40
78788;DHT22;68131;52.508;5.502;2023-06-14T13:49:44;25.80;43.00
78788;DHT22;68131;52.508;5.502;2023-06-14T13:52:13;25.80;43.00
78788;DHT22;68131;52.508;5.502;2023-06-14T13:54:45;25.90;42.90
78788;DHT22;68131;52.508;5.502;2023-06-14T13:57:14;25.80;42.80
78788;DHT22;68131;52.508;5.502;2023-06-14T13:59:43;25.80;43.20
78788;DHT22;68131;52.508;5.502;2023-06-14T14:02:13;25.80;43.30
78788;DHT22;68131;52.508;5.502;2023-06-14T14:04:45;25.90;43.10
78788;DHT22;68131;52.508;5.502;2023-06-14T14:07:21;25.90;42.70
78788;DHT22;68131;52.508;5.502;2023-06-14T14:09:50;25.90;43.00
78788;DHT22;68131;52.508;5.502;2023-06-14T14:12:20;25.90;43.00
78788;DHT22;68131;52.508;5.502;2023-06-14T14:14:49;26.00;42.50
78788;DHT22;68131;52.508;5.502;2023-06-14T14:17:21;26.00;42.60
78788;DHT22;68131;52.508;5.502;2023-06-14T14:19:53;26.00;43.00
78788;DHT22;68131;52.508;5.502;2023-06-14T14:22:25;26.00;42.90
78788;DHT22;68131;52.508;5.502;2023-06-14T14:24:54;26.10;42.90
78788;DHT22;68131;52.508;5.502;2023-06-14T14:27:23;26.20;43.00
78788;DHT22;68131;52.508;5.502;2023-06-14T14:29:53;26.10;43.10
78788;DHT22;68131;52.508;5.502;2023-06-14T14:32:22;26.00;43.40
78788;DHT22;68131;52.508;5.502;2023-06-14T14:34:58;26.10;43.20
78788;DHT22;68131;52.508;5.502;2023-06-14T14:37:27;26.10;42.90
78788;DHT22;68131;52.508;5.502;2023-06-14T14:39:56;26.00;43.00
78788;DHT22;68131;52.508;5.502;2023-06-14T14:42:25;26.00;42.60
78788;DHT22;68131;52.508;5.502;2023-06-14T14:44:55;25.90;42.70
78788;DHT22;68131;52.508;5.502;2023-06-14T14:47:26;25.80;43.20
78788;DHT22;68131;52.508;5.502;2023-06-14T14:49:57;25.80;42.60
78788;DHT22;68131;52.508;5.502;2023-06-14T14:52:27;25.70;42.60
78788;DHT22;68131;52.508;5.502;2023-06-14T14:54:56;25.70;42.80
78788;DHT22;68131;52.508;5.502;2023-06-14T14:57:27;25.80;43.00
78788;DHT22;68131;52.508;5.502;2023-06-14T14:59:56;25.70;43.20
78788;DHT22;68131;52.508;5.502;2023-06-14T15:02:27;25.70;43.10
78788;DHT22;68131;52.508;5.502;2023-06-14T15:04:58;25.70;43.10
78788;DHT22;68131;52.508;5.502;2023-06-14T15:07:30;25.80;42.90
78788;DHT22;68131;52.508;5.502;2023-06-14T15:09:59;25.80;43.00
78788;DHT22;68131;52.508;5.502;2023-06-14T15:12:28;25.80;43.20
78788;DHT22;68131;52.508;5.502;2023-06-14T15:14:57;25.80;43.30
78788;DHT22;68131;52.508;5.502;2023-06-14T15:17:26;25.90;43.50
78788;DHT22;68131;52.508;5.502;2023-06-14T15:19:58;25.90;43.00
78788;DHT22;68131;52.508;5.502;2023-06-14T15:22:27;25.90;43.40
78788;DHT22;68131;52.508;5.502;2023-06-14T15:24:56;26.00;43.20
78788;DHT22;68131;52.508;5.502;2023-06-14T15:27:25;26.00;43.00
78788;DHT22;68131;52.508;5.502;2023-06-14T15:29:55;26.00;43.10
78788;DHT22;68131;52.508;5.502;2023-06-14T15:32:24;26.00;43.30
78788;DHT22;68131;52.508;5.502;2023-06-14T15:34:53;26.00;43.40
78788;DHT22;68131;52.508;5.502;2023-06-14T15:37:31;26.00;43.20
78788;DHT22;68131;52.508;5.502;2023-06-14T15:40:00;26.10;43.20
78788;DHT22;68131;52.508;5.502;2023-06-14T15:42:29;26.00;43.30
78788;DHT22;68131;52.508;5.502;2023-06-14T15:44:58;26.00;43.60
78788;DHT22;68131;52.508;5.502;2023-06-14T15:47:30;26.10;43.50
78788;DHT22;68131;52.508;5.502;2023-06-14T15:49:59;26.00;43.30
78788;DHT22;68131;52.508;5.502;2023-06-14T15:52:34;26.00;43.30
78788;DHT22;68131;52.508;5.502;2023-06-14T15:55:05;26.10;43.70
78788;DHT22;68131;52.508;5.502;2023-06-14T15:57:34;26.10;43.40
78788;DHT22;68131;52.508;5.502;2023-06-14T16:00:04;26.10;43.40
78788;DHT22;68131;52.508;5.502;2023-06-14T16:02:34;26.10;43.20